Time,TemperatureF,DewpointF,PressureIn,WindDirection,WindDirectionDegrees,WindSpeedMPH,WindSpeedGustMPH,Humidity,HourlyPrecipIn,Conditions,Clouds,dailyrainin,SolarRadiationWatts/m^2,SoftwareType,DateUTC
2013-10-06 00:00:00,65.0,62.0,-100.00,South,180,4.0,-999.0,91,0.01,,,-99.99,0.000000,,2013-10-06 04:00:00,
2013-10-06 00:44:00,65.0,62.0,-100.00,South,180,4.0,-999.0,91,0.01,,,-99.99,0.000000,,2013-10-06 04:44:00,
2013-10-06 00:54:00,65.0,62.0,-100.00,South,180,4.0,-999.0,91,0.01,,,-99.99,0.000000,,2013-10-06 04:54:00,
2013-10-06 01:00:00,65.0,63.0,-100.00,SSW,202,5.0,-999.0,92,-99.99,,,-99.99,0.000000,,2013-10-06 05:00:00,
2013-10-06 01:43:00,65.0,63.0,-100.00,SSW,202,5.0,-999.0,92,-99.99,,,-99.99,0.000000,,2013-10-06 05:43:00,
2013-10-06 01:52:00,65.0,63.0,-100.00,SSW,202,5.0,-999.0,92,-99.99,,,-99.99,0.000000,,2013-10-06 05:52:00,
2013-10-06 02:00:00,66.0,64.0,-100.00,SSW,202,5.0,-999.0,92,-99.99,,,-99.99,0.000000,,2013-10-06 06:00:00,
2013-10-06 02:42:00,66.0,64.0,-100.00,SSW,202,5.0,-999.0,92,-99.99,,,-99.99,0.000000,,2013-10-06 06:42:00,
2013-10-06 02:52:00,66.0,64.0,-100.00,SSW,202,5.0,-999.0,92,-99.99,,,-99.99,0.000000,,2013-10-06 06:52:00,
2013-10-06 03:00:00,66.0,64.0,-100.00,SSW,202,4.0,-999.0,92,-99.99,,,-99.99,0.000000,,2013-10-06 07:00:00,
2013-10-06 03:43:00,66.0,64.0,-100.00,SSW,202,4.0,-999.0,92,-99.99,,,-99.99,0.000000,,2013-10-06 07:43:00,
2013-10-06 03:52:00,66.0,64.0,-100.00,SSW,202,4.0,-999.0,92,-99.99,,,-99.99,0.000000,,2013-10-06 07:52:00,
2013-10-06 04:00:00,65.0,63.0,-100.00,SSW,202,6.0,-999.0,92,-99.99,,,-99.99,0.000000,,2013-10-06 08:00:00,
2013-10-06 04:42:00,65.0,63.0,-100.00,SSW,202,6.0,-999.0,92,-99.99,,,-99.99,0.000000,,2013-10-06 08:42:00,
2013-10-06 04:53:00,65.0,63.0,-100.00,SSW,202,6.0,-999.0,92,-99.99,,,-99.99,0.000000,,2013-10-06 08:53:00,
2013-10-06 05:00:00,65.0,63.0,-100.00,SSW,202,4.0,-999.0,92,-99.99,,,-99.99,0.000000,,2013-10-06 09:00:00,
2013-10-06 05:43:00,65.0,63.0,-100.00,SSW,202,4.0,-999.0,92,-99.99,,,-99.99,0.000000,,2013-10-06 09:43:00,
2013-10-06 05:53:00,65.0,63.0,-100.00,SSW,202,4.0,-999.0,92,-99.99,,,-99.99,0.000000,,2013-10-06 09:53:00,
2013-10-06 06:00:00,65.0,62.0,-100.00,SSW,202,5.0,-999.0,91,-99.99,,,-99.99,0.000000,,2013-10-06 10:00:00,
2013-10-06 06:43:00,65.0,62.0,-100.00,SSW,202,5.0,-999.0,91,-99.99,,,-99.99,0.000000,,2013-10-06 10:43:00,
2013-10-06 06:53:00,65.0,62.0,-100.00,SSW,202,5.0,-999.0,91,-99.99,,,-99.99,0.000000,,2013-10-06 10:53:00,
2013-10-06 07:00:00,65.0,62.0,-100.00,SSW,202,5.0,-999.0,91,-99.99,,,-99.99,0.000000,,2013-10-06 11:00:00,
2013-10-06 07:42:00,65.0,62.0,-100.00,SSW,202,5.0,-999.0,91,-99.99,,,-99.99,0.000000,,2013-10-06 11:42:00,
2013-10-06 07:52:00,65.0,62.0,-100.00,SSW,202,5.0,-999.0,91,-99.99,,,-99.99,0.000000,,2013-10-06 11:52:00,
2013-10-06 08:00:00,63.0,60.0,-100.00,WSW,247,5.0,-999.0,90,-99.99,,,-99.99,0.000000,,2013-10-06 12:00:00,
2013-10-06 08:42:00,63.0,60.0,-100.00,WSW,247,5.0,-999.0,90,-99.99,,,-99.99,0.000000,,2013-10-06 12:42:00,
2013-10-06 08:52:00,63.0,60.0,-100.00,WSW,247,5.0,-999.0,90,-99.99,,,-99.99,0.000000,,2013-10-06 12:52:00,
2013-10-06 09:00:00,58.0,56.0,-100.00,NW,315,3.0,-999.0,92,0.01,,,-99.99,6.960000,,2013-10-06 13:00:00,
2013-10-06 09:42:00,58.0,56.0,-100.00,NW,315,3.0,-999.0,92,0.01,,,-99.99,6.960000,,2013-10-06 13:42:00,
2013-10-06 09:52:00,58.0,56.0,-100.00,NW,315,3.0,-999.0,92,0.01,,,-99.99,6.960000,,2013-10-06 13:52:00,
2013-10-06 10:00:00,57.0,55.0,-100.00,WNW,292,3.0,-999.0,92,0.02,,,-99.99,27.840000,,2013-10-06 14:00:00,
2013-10-06 10:42:00,57.0,55.0,-100.00,WNW,292,3.0,-999.0,92,0.02,,,-99.99,27.840000,,2013-10-06 14:42:00,
2013-10-06 10:52:00,57.0,55.0,-100.00,WNW,292,3.0,-999.0,92,0.02,,,-99.99,27.840000,,2013-10-06 14:52:00,
2013-10-06 11:00:00,55.0,53.0,-100.00,WNW,292,3.0,-999.0,93,0.06,,,-99.99,40.599998,,2013-10-06 15:00:00,
2013-10-06 11:44:00,55.0,53.0,-100.00,WNW,292,3.0,-999.0,93,0.06,,,-99.99,40.599998,,2013-10-06 15:44:00,
2013-10-06 11:54:00,55.0,53.0,-100.00,WNW,292,3.0,-999.0,93,0.06,,,-99.99,40.599998,,2013-10-06 15:54:00,
2013-10-06 12:00:00,54.0,52.0,-100.00,WNW,292,3.0,-999.0,93,0.05,,,-99.99,53.360001,,2013-10-06 16:00:00,
2013-10-06 12:43:00,54.0,52.0,-100.00,WNW,292,3.0,-999.0,93,0.05,,,-99.99,53.360001,,2013-10-06 16:43:00,
2013-10-06 12:53:00,54.0,52.0,-100.00,WNW,292,3.0,-999.0,93,0.05,,,-99.99,53.360001,,2013-10-06 16:53:00,
2013-10-06 13:00:00,53.0,51.0,-100.00,WNW,292,3.0,-999.0,93,0.18,,,-99.99,59.160000,,2013-10-06 17:00:00,
2013-10-06 13:43:00,53.0,51.0,-100.00,WNW,292,3.0,-999.0,93,0.18,,,-99.99,59.160000,,2013-10-06 17:43:00,
2013-10-06 13:53:00,53.0,51.0,-100.00,WNW,292,3.0,-999.0,93,0.18,,,-99.99,59.160000,,2013-10-06 17:53:00,
2013-10-06 14:00:00,52.0,50.0,-100.00,West,270,2.0,-999.0,93,0.07,,,-99.99,83.519997,,2013-10-06 18:00:00,
2013-10-06 14:43:00,52.0,50.0,-100.00,West,270,2.0,-999.0,93,0.07,,,-99.99,83.519997,,2013-10-06 18:43:00,
2013-10-06 14:52:00,52.0,50.0,-100.00,West,270,2.0,-999.0,93,0.07,,,-99.99,83.519997,,2013-10-06 18:52:00,
2013-10-06 15:00:00,53.0,51.0,-100.00,West,270,3.0,-999.0,92,-99.99,,,-99.99,238.960007,,2013-10-06 19:00:00,
2013-10-06 15:42:00,53.0,51.0,-100.00,West,270,3.0,-999.0,92,-99.99,,,-99.99,238.960007,,2013-10-06 19:42:00,
2013-10-06 15:53:00,53.0,51.0,-100.00,West,270,3.0,-999.0,92,-99.99,,,-99.99,238.960007,,2013-10-06 19:53:00,
2013-10-06 16:00:00,56.0,51.0,-100.00,West,270,3.0,-999.0,80,-99.99,,,-99.99,379.320007,,2013-10-06 20:00:00,
2013-10-06 16:42:00,56.0,51.0,-100.00,West,270,3.0,-999.0,80,-99.99,,,-99.99,379.320007,,2013-10-06 20:42:00,
2013-10-06 16:53:00,56.0,51.0,-100.00,West,270,3.0,-999.0,80,-99.99,,,-99.99,379.320007,,2013-10-06 20:53:00,
2013-10-06 17:00:00,58.0,48.0,-100.00,WSW,247,2.0,-999.0,70,-99.99,,,-99.99,237.800003,,2013-10-06 21:00:00,
2013-10-06 17:44:00,58.0,48.0,-100.00,WSW,247,2.0,-999.0,70,-99.99,,,-99.99,237.800003,,2013-10-06 21:44:00,
2013-10-06 17:55:00,58.0,48.0,-100.00,WSW,247,2.0,-999.0,70,-99.99,,,-99.99,237.800003,,2013-10-06 21:55:00,
2013-10-06 18:00:00,58.0,48.0,-100.00,WSW,247,1.0,-999.0,69,-99.99,,,-99.99,125.279999,,2013-10-06 22:00:00,
2013-10-06 18:43:00,58.0,48.0,-100.00,WSW,247,1.0,-999.0,69,-99.99,,,-99.99,125.279999,,2013-10-06 22:43:00,
2013-10-06 18:54:00,58.0,48.0,-100.00,WSW,247,1.0,-999.0,69,-99.99,,,-99.99,125.279999,,2013-10-06 22:54:00,
2013-10-06 19:00:00,57.0,50.0,-100.00,WSW,247,0.0,-999.0,77,-99.99,,,-99.99,16.240000,,2013-10-06 23:00:00,
2013-10-06 19:42:00,57.0,50.0,-100.00,WSW,247,0.0,-999.0,77,-99.99,,,-99.99,16.240000,,2013-10-06 23:42:00,
2013-10-06 19:53:00,57.0,50.0,-100.00,WSW,247,0.0,-999.0,77,-99.99,,,-99.99,16.240000,,2013-10-06 23:53:00,
2013-10-06 20:00:00,54.0,49.0,-100.00,WSW,247,0.0,-999.0,82,-99.99,,,-99.99,1.160000,,2013-10-07 00:00:00,
2013-10-06 20:42:00,54.0,49.0,-100.00,WSW,247,0.0,-999.0,82,-99.99,,,-99.99,1.160000,,2013-10-07 00:42:00,
2013-10-06 20:52:00,54.0,49.0,-100.00,WSW,247,0.0,-999.0,82,-99.99,,,-99.99,1.160000,,2013-10-07 00:52:00,
2013-10-06 21:00:00,53.0,49.0,-100.00,SSW,202,1.0,-999.0,85,-99.99,,,-99.99,0.000000,,2013-10-07 01:00:00,
2013-10-06 21:42:00,53.0,49.0,-100.00,SSW,202,1.0,-999.0,85,-99.99,,,-99.99,0.000000,,2013-10-07 01:42:00,
2013-10-06 21:53:00,53.0,49.0,-100.00,SSW,202,1.0,-999.0,85,-99.99,,,-99.99,0.000000,,2013-10-07 01:53:00,
2013-10-06 23:00:00,51.0,41.0,-100.00,WSW,247,5.0,-999.0,69,-99.99,,,-99.99,0.000000,,2013-10-07 03:00:00,
2013-10-06 23:44:00,51.0,41.0,-100.00,WSW,247,5.0,-999.0,69,-99.99,,,-99.99,0.000000,,2013-10-07 03:44:00,
2013-10-06 23:54:00,51.0,41.0,-100.00,WSW,247,5.0,-999.0,69,-99.99,,,-99.99,0.000000,,2013-10-07 03:54:00,